Mutty's Pride — V4TL — position and weather

sailwx.info

Track history (hours):
 
Tides and Currents Weather Stations Pressure Air Temp Water Temp Dewpoint Dewpoint Depression Visibility Wind Speed Wind Dir Waves Ship Positions

Mutty's Pride

Last reported at 2017-Sep-15 22:19 UTC. Time now 2017-Sep-22 22:33 UTC.
Position N 18°00' W 063°03'.

Length 60 m; draft 2.3 m.

Type: Cargo ship. MMSI: 341504000.

Date/timePositionNaut miles runAvg speedWind from/ knotsBaromVisibWave heightAir tempDewpointWater temp
2017-Sep-15 22:19N 18°00' W 063°03'0 0.0
2017-Sep-15 16:59N 18°00' W 063°03'0 0.0
2017-Sep-15 16:28N 18°00' W 063°03'  
2017-Sep-12 16:09N 18°04' W 063°10'5 9.9
2017-Sep-12 15:40N 18°09' W 063°11'  
2017-Sep-10 09:17N 16°47' W 062°26'2 7.8
2017-Sep-10 09:00N 16°45' W 062°25'4 8.0
2017-Sep-10 08:30N 16°42' W 062°23'4 7.6
2017-Sep-10 08:00N 16°39' W 062°20'4 7.2
2017-Sep-10 07:30N 16°36' W 062°18'4 7.2
2017-Sep-10 07:00N 16°33' W 062°16'4 7.4
2017-Sep-10 06:30N 16°29' W 062°14'4 7.4
2017-Sep-10 06:00N 16°26' W 062°12'4 7.2
2017-Sep-10 05:25N 16°23' W 062°09'40 7.4
2017-Sep-10 00:05N 15°51' W 061°46'24 0.6
2017-Sep-08 09:39N 15°34' W 061°28'0 0.0
2017-Sep-08 04:21N 15°34' W 061°28'9 0.2
2017-Sep-06 03:06N 15°37' W 061°37'1 9.9
2017-Sep-06 02:58N 15°39' W 061°38'6 9.9
2017-Sep-06 02:23N 15°43' W 061°41'510.1
2017-Sep-06 01:52N 15°47' W 061°45'410.4
2017-Sep-06 01:28N 15°50' W 061°48'3310.7
2017-Sep-05 22:26N 16°18' W 062°06'  
Track history (hours):
 
Tides and Currents Weather Stations Pressure Air Temp Water Temp Dewpoint Dewpoint Depression Visibility Wind Speed Wind Dir Waves Ship Positions

Mutty's Pride

Last reported at 2017-Sep-15 22:19 UTC. Time now 2017-Sep-22 22:33 UTC.
Position N 18°00' W 063°03'.

Length 60 m; draft 2.3 m.

Type: Cargo ship. MMSI: 341504000.

Date/timePositionNaut miles runAvg speedWind from/ knotsBaromVisibWave heightAir tempDewpointWater temp
2017-Sep-15 22:19N 18°00' W 063°03'0 0.0
2017-Sep-15 16:59N 18°00' W 063°03'0 0.0
2017-Sep-15 16:28N 18°00' W 063°03'  
2017-Sep-12 16:09N 18°04' W 063°10'5 9.9
2017-Sep-12 15:40N 18°09' W 063°11'  
2017-Sep-10 09:17N 16°47' W 062°26'2 7.8
2017-Sep-10 09:00N 16°45' W 062°25'4 8.0
2017-Sep-10 08:30N 16°42' W 062°23'4 7.6
2017-Sep-10 08:00N 16°39' W 062°20'4 7.2
2017-Sep-10 07:30N 16°36' W 062°18'4 7.2
2017-Sep-10 07:00N 16°33' W 062°16'4 7.4
2017-Sep-10 06:30N 16°29' W 062°14'4 7.4
2017-Sep-10 06:00N 16°26' W 062°12'4 7.2
2017-Sep-10 05:25N 16°23' W 062°09'40 7.4
2017-Sep-10 00:05N 15°51' W 061°46'24 0.6
2017-Sep-08 09:39N 15°34' W 061°28'0 0.0
2017-Sep-08 04:21N 15°34' W 061°28'9 0.2
2017-Sep-06 03:06N 15°37' W 061°37'1 9.9
2017-Sep-06 02:58N 15°39' W 061°38'6 9.9
2017-Sep-06 02:23N 15°43' W 061°41'510.1
2017-Sep-06 01:52N 15°47' W 061°45'410.4
2017-Sep-06 01:28N 15°50' W 061°48'3310.7
2017-Sep-05 22:26N 16°18' W 062°06'  

Dump ship's entire track history